UAL9 KEWR-KBNA
Flight info
| Callsign | UAL9 |
|---|---|
| Flight time | 1h 25m |
| Altitude | 32000 |
| Route | PARKE J6 MRB/N0451F360 J6 HVQ Q68 YOCKY CUTRR PASLY5 |
| Aircraft | A321/M-SDE3FGHIRWY/LB1 |
Departure
| Time | 2026-05-06 03:00 |
|---|---|
| Airport | Newark Liberty International Airport (KEWR) |
Arrival
| Time | 2026-05-06 04:25 |
|---|---|
| Airport | Nashville International Airport (KBNA) |
| Time | Latitude | Longitude | Altitude | Speed | Heading |
|---|---|---|---|---|---|
| 2026-05-06 02:40 | 40.69408 | -74.17359 | 22 ft | 0 kts | 13° |
| 2026-05-06 02:49 | 40.69406 | -74.17360 | 22 ft | 2 kts | 13° |
| 2026-05-06 02:49 | 40.69380 | -74.17368 | 22 ft | 4 kts | 13° |
| 2026-05-06 02:49 | 40.69354 | -74.17376 | 23 ft | 4 kts | 14° |
| 2026-05-06 02:50 | 40.69328 | -74.17385 | 24 ft | 4 kts | 15° |
| 2026-05-06 02:50 | 40.69302 | -74.17394 | 24 ft | 4 kts | 17° |
| 2026-05-06 02:50 | 40.69287 | -74.17400 | 24 ft | 0 kts | 18° |
| 2026-05-06 02:52 | 40.69293 | -74.17398 | 24 ft | 4 kts | 19° |
| 2026-05-06 02:52 | 40.69311 | -74.17389 | 24 ft | 0 kts | 20° |
| 2026-05-06 02:53 | 40.69314 | -74.17387 | 24 ft | 0 kts | 20° |
| 2026-05-06 02:54 | 40.69318 | -74.17385 | 24 ft | 0 kts | 22° |
| 2026-05-06 02:54 | 40.69321 | -74.17384 | 23 ft | 0 kts | 23° |
| 2026-05-06 02:55 | 40.69321 | -74.17383 | 23 ft | 1 kts | 24° |
| 2026-05-06 02:55 | 40.69329 | -74.17360 | 22 ft | 2 kts | 95° |
| 2026-05-06 02:55 | 40.69308 | -74.17319 | 22 ft | 8 kts | 119° |
| 2026-05-06 02:56 | 40.69275 | -74.17240 | 22 ft | 9 kts | 120° |
| 2026-05-06 02:56 | 40.69262 | -74.17150 | 22 ft | 12 kts | 66° |
| 2026-05-06 02:56 | 40.69339 | -74.17080 | 23 ft | 16 kts | 27° |
| 2026-05-06 02:56 | 40.69448 | -74.17008 | 22 ft | 20 kts | 28° |
| 2026-05-06 02:57 | 40.69581 | -74.16925 | 22 ft | 23 kts | 25° |
| 2026-05-06 02:57 | 40.69722 | -74.16835 | 22 ft | 19 kts | 25° |
| 2026-05-06 02:57 | 40.69793 | -74.16730 | 23 ft | 17 kts | 65° |
| 2026-05-06 02:57 | 40.69810 | -74.16643 | 21 ft | 0 kts | 96° |
| 2026-05-06 02:58 | 40.69808 | -74.16631 | 21 ft | 5 kts | 107° |
| 2026-05-06 02:59 | 40.69767 | -74.16556 | 20 ft | 14 kts | 153° |
| 2026-05-06 02:59 | 40.69711 | -74.16565 | 21 ft | 6 kts | 204° |
| 2026-05-06 02:59 | 40.69513 | -74.16703 | 24 ft | 69 kts | 202° |
| 2026-05-06 02:59 | 40.68818 | -74.17128 | 24 ft | 147 kts | 206° |
| 2026-05-06 03:00 | 40.67763 | -74.17814 | 377 ft | 179 kts | 205° |
| 2026-05-06 03:00 | 40.66662 | -74.18521 | 1435 ft | 170 kts | 208° |
| 2026-05-06 03:00 | 40.65666 | -74.19220 | 2322 ft | 157 kts | 223° |
| 2026-05-06 03:00 | 40.65150 | -74.20496 | 2884 ft | 169 kts | 258° |
| 2026-05-06 03:01 | 40.65388 | -74.22088 | 3368 ft | 194 kts | 283° |
| 2026-05-06 03:01 | 40.65729 | -74.23871 | 3655 ft | 209 kts | 266° |
| 2026-05-06 03:01 | 40.65787 | -74.25889 | 4030 ft | 229 kts | 266° |
| 2026-05-06 03:01 | 40.65853 | -74.28039 | 4731 ft | 237 kts | 267° |
| 2026-05-06 03:02 | 40.65925 | -74.30225 | 5532 ft | 241 kts | 268° |
| 2026-05-06 03:02 | 40.66001 | -74.32456 | 6323 ft | 246 kts | 269° |
| 2026-05-06 03:02 | 40.66080 | -74.34727 | 7068 ft | 250 kts | 269° |
| 2026-05-06 03:02 | 40.66160 | -74.37042 | 7796 ft | 255 kts | 269° |
| 2026-05-06 03:03 | 40.66238 | -74.39397 | 8536 ft | 260 kts | 270° |
| 2026-05-06 03:03 | 40.66319 | -74.41801 | 9267 ft | 266 kts | 270° |
| 2026-05-06 03:03 | 40.66403 | -74.44263 | 9945 ft | 272 kts | 270° |
| 2026-05-06 03:03 | 40.66487 | -74.46815 | 10296 ft | 290 kts | 270° |
| 2026-05-06 03:04 | 40.66576 | -74.49564 | 10498 ft | 311 kts | 270° |
| 2026-05-06 03:04 | 40.66670 | -74.52466 | 11025 ft | 320 kts | 270° |
| 2026-05-06 03:04 | 40.66765 | -74.55416 | 11708 ft | 324 kts | 270° |
| 2026-05-06 03:04 | 40.66861 | -74.58374 | 12412 ft | 328 kts | 269° |
| 2026-05-06 03:05 | 40.66960 | -74.61406 | 13148 ft | 330 kts | 269° |
| 2026-05-06 03:05 | 40.67054 | -74.64415 | 13834 ft | 334 kts | 269° |
| 2026-05-06 03:05 | 40.67151 | -74.67474 | 14471 ft | 336 kts | 269° |
| 2026-05-06 03:05 | 40.67249 | -74.70573 | 15136 ft | 339 kts | 269° |
| 2026-05-06 03:06 | 40.67346 | -74.73680 | 15801 ft | 341 kts | 269° |
| 2026-05-06 03:06 | 40.67441 | -74.76807 | 16457 ft | 343 kts | 269° |
| 2026-05-06 03:06 | 40.67532 | -74.79958 | 17107 ft | 345 kts | 268° |
| 2026-05-06 03:06 | 40.67624 | -74.83128 | 17778 ft | 347 kts | 268° |
| 2026-05-06 03:07 | 40.67715 | -74.86318 | 18373 ft | 350 kts | 268° |
| 2026-05-06 03:07 | 40.67808 | -74.89525 | 18916 ft | 352 kts | 268° |
| 2026-05-06 03:07 | 40.67903 | -74.92759 | 19465 ft | 354 kts | 268° |
| 2026-05-06 03:07 | 40.67996 | -74.96007 | 20006 ft | 356 kts | 268° |
| 2026-05-06 03:08 | 40.68086 | -74.99272 | 20539 ft | 358 kts | 268° |
| 2026-05-06 03:08 | 40.68176 | -75.02561 | 21058 ft | 360 kts | 268° |
| 2026-05-06 03:08 | 40.68076 | -75.05846 | 21583 ft | 358 kts | 258° |
| 2026-05-06 03:08 | 40.67468 | -75.09013 | 22095 ft | 358 kts | 248° |
| 2026-05-06 03:09 | 40.66370 | -75.11965 | 22605 ft | 359 kts | 238° |
| 2026-05-06 03:09 | 40.65072 | -75.14790 | 23111 ft | 361 kts | 239° |
| 2026-05-06 03:09 | 40.63771 | -75.17633 | 23584 ft | 364 kts | 239° |
| 2026-05-06 03:09 | 40.62464 | -75.20496 | 23975 ft | 366 kts | 239° |
| 2026-05-06 03:10 | 40.61147 | -75.23380 | 24357 ft | 369 kts | 239° |
| 2026-05-06 03:10 | 40.59825 | -75.26283 | 24710 ft | 371 kts | 239° |
| 2026-05-06 03:10 | 40.58492 | -75.29204 | 25074 ft | 374 kts | 239° |
| 2026-05-06 03:10 | 40.57138 | -75.32157 | 25451 ft | 377 kts | 239° |
| 2026-05-06 03:11 | 40.55789 | -75.35091 | 25831 ft | 379 kts | 239° |
| 2026-05-06 03:11 | 40.54417 | -75.38075 | 26202 ft | 382 kts | 240° |
| 2026-05-06 03:11 | 40.53039 | -75.41075 | 26566 ft | 384 kts | 240° |
| 2026-05-06 03:11 | 40.51657 | -75.44091 | 26919 ft | 387 kts | 240° |
| 2026-05-06 03:12 | 40.50262 | -75.47132 | 27264 ft | 390 kts | 240° |
| 2026-05-06 03:12 | 40.48855 | -75.50189 | 27607 ft | 392 kts | 240° |
| 2026-05-06 03:12 | 40.47434 | -75.53264 | 27950 ft | 395 kts | 240° |
| 2026-05-06 03:12 | 40.46006 | -75.56357 | 28285 ft | 397 kts | 240° |
| 2026-05-06 03:13 | 40.44570 | -75.59465 | 28618 ft | 399 kts | 240° |
| 2026-05-06 03:13 | 40.43121 | -75.62595 | 28917 ft | 402 kts | 240° |
| 2026-05-06 03:13 | 40.41664 | -75.65737 | 29244 ft | 404 kts | 240° |
| 2026-05-06 03:13 | 40.40199 | -75.68898 | 29566 ft | 407 kts | 240° |
| 2026-05-06 03:14 | 40.38726 | -75.72078 | 29876 ft | 409 kts | 240° |
| 2026-05-06 03:14 | 40.37244 | -75.75270 | 30150 ft | 411 kts | 240° |
| 2026-05-06 03:14 | 40.35751 | -75.78481 | 30398 ft | 413 kts | 240° |
| 2026-05-06 03:14 | 40.34252 | -75.81703 | 30651 ft | 415 kts | 240° |
| 2026-05-06 03:15 | 40.32742 | -75.84946 | 30899 ft | 418 kts | 240° |
| 2026-05-06 03:15 | 40.31221 | -75.88206 | 31195 ft | 419 kts | 241° |
| 2026-05-06 03:15 | 40.29704 | -75.91460 | 31581 ft | 418 kts | 241° |
| 2026-05-06 03:15 | 40.28189 | -75.94704 | 31830 ft | 418 kts | 241° |
| 2026-05-06 03:16 | 40.26680 | -75.97929 | 31874 ft | 408 kts | 241° |
| 2026-05-06 03:16 | 40.23777 | -76.04111 | 31889 ft | 398 kts | 241° |
| 2026-05-06 03:17 | 40.20882 | -76.10263 | 31901 ft | 396 kts | 241° |
| 2026-05-06 03:17 | 40.17988 | -76.16412 | 31906 ft | 396 kts | 242° |
| 2026-05-06 03:18 | 40.15103 | -76.22548 | 31906 ft | 396 kts | 242° |
| 2026-05-06 03:18 | 40.12208 | -76.28674 | 31904 ft | 396 kts | 242° |
| 2026-05-06 03:19 | 40.09367 | -76.34781 | 31876 ft | 396 kts | 243° |
| 2026-05-06 03:19 | 40.06535 | -76.40955 | 31862 ft | 396 kts | 243° |
| 2026-05-06 03:20 | 40.02273 | -76.50190 | 31874 ft | 396 kts | 243° |
| 2026-05-06 03:20 | 39.99423 | -76.56341 | 31883 ft | 396 kts | 243° |
| 2026-05-06 03:21 | 39.96569 | -76.62483 | 31892 ft | 396 kts | 243° |
| 2026-05-06 03:21 | 39.93712 | -76.68619 | 31896 ft | 395 kts | 243° |
| 2026-05-06 03:22 | 39.90858 | -76.74745 | 31907 ft | 395 kts | 243° |
| 2026-05-06 03:22 | 39.87999 | -76.80869 | 31904 ft | 395 kts | 243° |
| 2026-05-06 03:23 | 39.85135 | -76.86976 | 31912 ft | 395 kts | 244° |
| 2026-05-06 03:23 | 39.82267 | -76.93075 | 31922 ft | 394 kts | 244° |
| 2026-05-06 03:24 | 39.79428 | -76.99126 | 31931 ft | 393 kts | 244° |
| 2026-05-06 03:24 | 39.76575 | -77.05196 | 31930 ft | 393 kts | 244° |
| 2026-05-06 03:25 | 39.73715 | -77.11245 | 31907 ft | 393 kts | 244° |
| 2026-05-06 03:25 | 39.70856 | -77.17293 | 31913 ft | 393 kts | 244° |
| 2026-05-06 03:26 | 39.67995 | -77.23334 | 31916 ft | 393 kts | 244° |
| 2026-05-06 03:26 | 39.65131 | -77.29381 | 31910 ft | 393 kts | 244° |
| 2026-05-06 03:27 | 39.62263 | -77.35422 | 31912 ft | 393 kts | 244° |
| 2026-05-06 03:27 | 39.59396 | -77.41452 | 31914 ft | 393 kts | 244° |
| 2026-05-06 03:28 | 39.56518 | -77.47472 | 31878 ft | 393 kts | 244° |
| 2026-05-06 03:28 | 39.53635 | -77.53491 | 31885 ft | 393 kts | 244° |
| 2026-05-06 03:29 | 39.50750 | -77.59509 | 31902 ft | 393 kts | 245° |
| 2026-05-06 03:29 | 39.47868 | -77.65523 | 31919 ft | 392 kts | 245° |
| 2026-05-06 03:30 | 39.44988 | -77.71504 | 31893 ft | 391 kts | 245° |
| 2026-05-06 03:30 | 39.42115 | -77.77461 | 31891 ft | 390 kts | 245° |
| 2026-05-06 03:31 | 39.39242 | -77.83418 | 31895 ft | 389 kts | 245° |
| 2026-05-06 03:31 | 39.36558 | -77.89463 | 31857 ft | 386 kts | 249° |
| 2026-05-06 03:32 | 39.34181 | -77.95625 | 31866 ft | 385 kts | 250° |
| 2026-05-06 03:32 | 39.31813 | -78.01837 | 31901 ft | 385 kts | 249° |
| 2026-05-06 03:33 | 39.29384 | -78.08002 | 31907 ft | 385 kts | 249° |
| 2026-05-06 03:33 | 39.26922 | -78.14138 | 31910 ft | 385 kts | 249° |
| 2026-05-06 03:34 | 39.24462 | -78.20264 | 31913 ft | 384 kts | 249° |
| 2026-05-06 03:34 | 39.22010 | -78.26385 | 31911 ft | 384 kts | 249° |
| 2026-05-06 03:35 | 39.19553 | -78.32509 | 31867 ft | 384 kts | 249° |
| 2026-05-06 03:35 | 39.17095 | -78.38633 | 31869 ft | 385 kts | 249° |
| 2026-05-06 03:36 | 39.14631 | -78.44759 | 31873 ft | 386 kts | 249° |
| 2026-05-06 03:36 | 39.12161 | -78.50882 | 31873 ft | 385 kts | 249° |
| 2026-05-06 03:37 | 39.09683 | -78.56997 | 31880 ft | 385 kts | 249° |
| 2026-05-06 03:37 | 39.07624 | -78.62079 | 31878 ft | 385 kts | 249° |
| 2026-05-06 03:38 | 39.04747 | -78.69179 | 31889 ft | 385 kts | 249° |
| 2026-05-06 03:38 | 39.02265 | -78.75277 | 31868 ft | 384 kts | 249° |
| 2026-05-06 03:39 | 39.00184 | -78.80375 | 31874 ft | 384 kts | 249° |
| 2026-05-06 03:39 | 38.97712 | -78.86405 | 31876 ft | 384 kts | 249° |
| 2026-05-06 03:40 | 38.95234 | -78.92473 | 31870 ft | 383 kts | 249° |
| 2026-05-06 03:40 | 38.92751 | -78.98544 | 31883 ft | 384 kts | 249° |
| 2026-05-06 03:41 | 38.90255 | -79.04602 | 31880 ft | 383 kts | 248° |
| 2026-05-06 03:41 | 38.87762 | -79.10648 | 31895 ft | 383 kts | 248° |
| 2026-05-06 03:42 | 38.85274 | -79.16682 | 31907 ft | 382 kts | 248° |
| 2026-05-06 03:42 | 38.83452 | -79.22948 | 31874 ft | 371 kts | 262° |
| 2026-05-06 03:43 | 38.82324 | -79.29368 | 31891 ft | 372 kts | 262° |
| 2026-05-06 03:43 | 38.81164 | -79.35819 | 31896 ft | 372 kts | 262° |
| 2026-05-06 03:44 | 38.79994 | -79.42285 | 31899 ft | 372 kts | 261° |
| 2026-05-06 03:44 | 38.78819 | -79.48752 | 31908 ft | 372 kts | 261° |
| 2026-05-06 03:45 | 38.77643 | -79.55213 | 31908 ft | 371 kts | 261° |
| 2026-05-06 03:45 | 38.76464 | -79.61657 | 31909 ft | 371 kts | 261° |
| 2026-05-06 03:46 | 38.75289 | -79.68085 | 31915 ft | 371 kts | 261° |
| 2026-05-06 03:46 | 38.74036 | -79.74932 | 31912 ft | 370 kts | 261° |
| 2026-05-06 03:47 | 38.69300 | -80.00571 | 31896 ft | 369 kts | 261° |
| 2026-05-06 03:47 | 38.64537 | -80.25997 | 31912 ft | 368 kts | 261° |
| 2026-05-06 03:48 | 38.59709 | -80.51436 | 31865 ft | 367 kts | 261° |
| 2026-05-06 03:48 | 38.54869 | -80.76579 | 31883 ft | 361 kts | 261° |
| 2026-05-06 03:49 | 38.50043 | -81.01441 | 31876 ft | 359 kts | 261° |
| 2026-05-06 03:49 | 38.45198 | -81.25994 | 31848 ft | 357 kts | 261° |
| 2026-05-06 03:50 | 38.40302 | -81.50549 | 31843 ft | 357 kts | 260° |
| 2026-05-06 03:50 | 38.35362 | -81.75088 | 31842 ft | 358 kts | 260° |
| 2026-05-06 03:51 | 38.28693 | -81.99428 | 31869 ft | 364 kts | 256° |
| 2026-05-06 03:51 | 38.21875 | -82.23582 | 31835 ft | 361 kts | 256° |
| 2026-05-06 03:52 | 38.15034 | -82.47583 | 31812 ft | 361 kts | 256° |
| 2026-05-06 03:52 | 38.08194 | -82.71371 | 31833 ft | 360 kts | 255° |
| 2026-05-06 03:53 | 38.01283 | -82.95197 | 31846 ft | 358 kts | 255° |
| 2026-05-06 03:53 | 37.94346 | -83.18943 | 31882 ft | 362 kts | 255° |
| 2026-05-06 03:54 | 37.87314 | -83.42723 | 31877 ft | 358 kts | 255° |
| 2026-05-06 03:54 | 37.80293 | -83.66305 | 31844 ft | 357 kts | 255° |
| 2026-05-06 03:55 | 37.73210 | -83.89886 | 31863 ft | 361 kts | 255° |
| 2026-05-06 03:55 | 37.66035 | -84.13425 | 31889 ft | 360 kts | 250° |
| 2026-05-06 03:56 | 37.58934 | -84.22650 | 31886 ft | 379 kts | 230° |
| 2026-05-06 03:56 | 37.50937 | -84.31451 | 31881 ft | 380 kts | 230° |
| 2026-05-06 03:56 | 37.34954 | -84.48844 | 31858 ft | 379 kts | 230° |
| 2026-05-06 03:57 | 37.18940 | -84.66165 | 31865 ft | 380 kts | 230° |
| 2026-05-06 03:57 | 37.10854 | -84.74865 | 31854 ft | 379 kts | 230° |
| 2026-05-06 03:58 | 37.06847 | -84.79184 | 31860 ft | 379 kts | 230° |
| 2026-05-06 03:58 | 37.02987 | -84.83566 | 31895 ft | 371 kts | 237° |
| 2026-05-06 03:59 | 37.00108 | -84.88903 | 31205 ft | 371 kts | 245° |
| 2026-05-06 03:59 | 36.98758 | -84.91696 | 30192 ft | 380 kts | 244° |
| 2026-05-06 03:59 | 36.97377 | -84.94563 | 29287 ft | 386 kts | 244° |
| 2026-05-06 04:00 | 36.96018 | -84.97372 | 28860 ft | 378 kts | 243° |
| 2026-05-06 04:00 | 36.94660 | -85.00167 | 28383 ft | 372 kts | 243° |
| 2026-05-06 04:00 | 36.93323 | -85.02909 | 27918 ft | 367 kts | 243° |
| 2026-05-06 04:00 | 36.92006 | -85.05607 | 27462 ft | 361 kts | 243° |
| 2026-05-06 04:01 | 36.90708 | -85.08264 | 27022 ft | 355 kts | 243° |
| 2026-05-06 04:01 | 36.89427 | -85.10881 | 26597 ft | 349 kts | 243° |
| 2026-05-06 04:01 | 36.88171 | -85.13446 | 26168 ft | 344 kts | 243° |
| 2026-05-06 04:01 | 36.86931 | -85.15977 | 25779 ft | 338 kts | 243° |
| 2026-05-06 04:02 | 36.85730 | -85.18431 | 25401 ft | 333 kts | 243° |
| 2026-05-06 04:02 | 36.84527 | -85.20889 | 25019 ft | 329 kts | 243° |
| 2026-05-06 04:02 | 36.83339 | -85.23314 | 24652 ft | 325 kts | 243° |
| 2026-05-06 04:02 | 36.82167 | -85.25706 | 24274 ft | 321 kts | 243° |
| 2026-05-06 04:03 | 36.81006 | -85.28072 | 23894 ft | 317 kts | 243° |
| 2026-05-06 04:03 | 36.79859 | -85.30412 | 23530 ft | 316 kts | 243° |
| 2026-05-06 04:03 | 36.78716 | -85.32743 | 23112 ft | 314 kts | 243° |
| 2026-05-06 04:03 | 36.77575 | -85.35063 | 22739 ft | 313 kts | 243° |
| 2026-05-06 04:04 | 36.76439 | -85.37374 | 22364 ft | 311 kts | 243° |
| 2026-05-06 04:04 | 36.75307 | -85.39673 | 21993 ft | 310 kts | 242° |
| 2026-05-06 04:04 | 36.74179 | -85.41979 | 21605 ft | 317 kts | 243° |
| 2026-05-06 04:04 | 36.73032 | -85.44404 | 21181 ft | 328 kts | 243° |
| 2026-05-06 04:05 | 36.71897 | -85.46840 | 20738 ft | 329 kts | 243° |
| 2026-05-06 04:05 | 36.70739 | -85.49337 | 20315 ft | 328 kts | 243° |
| 2026-05-06 04:05 | 36.69596 | -85.51790 | 19888 ft | 326 kts | 242° |
| 2026-05-06 04:05 | 36.68457 | -85.54217 | 19467 ft | 324 kts | 242° |
| 2026-05-06 04:06 | 36.67332 | -85.56603 | 19047 ft | 322 kts | 242° |
| 2026-05-06 04:06 | 36.66199 | -85.59004 | 18617 ft | 320 kts | 242° |
| 2026-05-06 04:06 | 36.65072 | -85.61388 | 18216 ft | 318 kts | 242° |
| 2026-05-06 04:06 | 36.63954 | -85.63753 | 17881 ft | 316 kts | 242° |
| 2026-05-06 04:07 | 36.62838 | -85.66107 | 17474 ft | 314 kts | 242° |
| 2026-05-06 04:07 | 36.61731 | -85.68445 | 17071 ft | 312 kts | 242° |
| 2026-05-06 04:07 | 36.60636 | -85.70758 | 16659 ft | 309 kts | 242° |
| 2026-05-06 04:07 | 36.59544 | -85.73060 | 16261 ft | 307 kts | 242° |
| 2026-05-06 04:08 | 36.58461 | -85.75341 | 15858 ft | 305 kts | 242° |
| 2026-05-06 04:08 | 36.57388 | -85.77601 | 15473 ft | 303 kts | 242° |
| 2026-05-06 04:08 | 36.56320 | -85.79851 | 15082 ft | 300 kts | 242° |
| 2026-05-06 04:08 | 36.55261 | -85.82083 | 14691 ft | 298 kts | 242° |
| 2026-05-06 04:09 | 36.54210 | -85.84300 | 14304 ft | 296 kts | 242° |
| 2026-05-06 04:09 | 36.53167 | -85.86501 | 13919 ft | 294 kts | 242° |
| 2026-05-06 04:09 | 36.52129 | -85.88685 | 13519 ft | 293 kts | 241° |
| 2026-05-06 04:09 | 36.51097 | -85.90854 | 13113 ft | 290 kts | 241° |
| 2026-05-06 04:10 | 36.50074 | -85.93002 | 12741 ft | 288 kts | 241° |
| 2026-05-06 04:10 | 36.49058 | -85.95130 | 12370 ft | 285 kts | 241° |
| 2026-05-06 04:10 | 36.48061 | -85.97219 | 12009 ft | 284 kts | 241° |
| 2026-05-06 04:10 | 36.47051 | -85.99343 | 11383 ft | 289 kts | 241° |
| 2026-05-06 04:11 | 36.46039 | -86.01470 | 11047 ft | 283 kts | 240° |
| 2026-05-06 04:11 | 36.45039 | -86.03562 | 10728 ft | 277 kts | 240° |
| 2026-05-06 04:11 | 36.44074 | -86.05572 | 10598 ft | 265 kts | 240° |
| 2026-05-06 04:11 | 36.43143 | -86.07506 | 10305 ft | 259 kts | 240° |
| 2026-05-06 04:12 | 36.42221 | -86.09421 | 9945 ft | 257 kts | 240° |
| 2026-05-06 04:12 | 36.41306 | -86.11328 | 9550 ft | 256 kts | 240° |
| 2026-05-06 04:12 | 36.40401 | -86.13222 | 9131 ft | 254 kts | 241° |
| 2026-05-06 04:12 | 36.39782 | -86.15257 | 8718 ft | 253 kts | 258° |
| 2026-05-06 04:13 | 36.39755 | -86.17431 | 8333 ft | 255 kts | 275° |
| 2026-05-06 04:13 | 36.40251 | -86.19549 | 7968 ft | 255 kts | 282° |
| 2026-05-06 04:13 | 36.40809 | -86.21629 | 7606 ft | 252 kts | 282° |
| 2026-05-06 04:13 | 36.41356 | -86.23697 | 7079 ft | 255 kts | 282° |
| 2026-05-06 04:14 | 36.41911 | -86.25828 | 6507 ft | 261 kts | 282° |
| 2026-05-06 04:14 | 36.42463 | -86.27943 | 6255 ft | 253 kts | 282° |
| 2026-05-06 04:14 | 36.42996 | -86.29970 | 6109 ft | 241 kts | 282° |
| 2026-05-06 04:14 | 36.43460 | -86.31904 | 6025 ft | 225 kts | 276° |
| 2026-05-06 04:15 | 36.43732 | -86.33716 | 6021 ft | 208 kts | 272° |
| 2026-05-06 04:15 | 36.43926 | -86.35440 | 6022 ft | 198 kts | 271° |
| 2026-05-06 04:15 | 36.44095 | -86.37125 | 6026 ft | 196 kts | 271° |
| 2026-05-06 04:15 | 36.44261 | -86.38794 | 6026 ft | 194 kts | 271° |
| 2026-05-06 04:16 | 36.44429 | -86.40445 | 6025 ft | 193 kts | 271° |
| 2026-05-06 04:16 | 36.44598 | -86.42094 | 6025 ft | 192 kts | 271° |
| 2026-05-06 04:16 | 36.44772 | -86.43745 | 6025 ft | 193 kts | 271° |
| 2026-05-06 04:16 | 36.44948 | -86.45394 | 6041 ft | 193 kts | 270° |
| 2026-05-06 04:17 | 36.45125 | -86.47029 | 6026 ft | 188 kts | 270° |
| 2026-05-06 04:17 | 36.45298 | -86.48654 | 6023 ft | 190 kts | 270° |
| 2026-05-06 04:17 | 36.45472 | -86.50288 | 6021 ft | 192 kts | 268° |
| 2026-05-06 04:17 | 36.45398 | -86.51904 | 6019 ft | 186 kts | 246° |
| 2026-05-06 04:18 | 36.44651 | -86.53196 | 5930 ft | 190 kts | 220° |
| 2026-05-06 04:18 | 36.43425 | -86.53862 | 5773 ft | 198 kts | 205° |
| 2026-05-06 04:18 | 36.42109 | -86.54380 | 5625 ft | 198 kts | 205° |
| 2026-05-06 04:18 | 36.40803 | -86.54899 | 5468 ft | 195 kts | 205° |
| 2026-05-06 04:19 | 36.39517 | -86.55415 | 5319 ft | 193 kts | 205° |
| 2026-05-06 04:19 | 36.38242 | -86.55929 | 5168 ft | 191 kts | 205° |
| 2026-05-06 04:19 | 36.36983 | -86.56437 | 5020 ft | 188 kts | 205° |
| 2026-05-06 04:19 | 36.35746 | -86.56936 | 4844 ft | 189 kts | 204° |
| 2026-05-06 04:20 | 36.34502 | -86.57436 | 4734 ft | 188 kts | 204° |
| 2026-05-06 04:20 | 36.33271 | -86.57932 | 4561 ft | 185 kts | 204° |
| 2026-05-06 04:20 | 36.32053 | -86.58422 | 4334 ft | 183 kts | 203° |
| 2026-05-06 04:20 | 36.30847 | -86.58908 | 4101 ft | 182 kts | 203° |
| 2026-05-06 04:21 | 36.29660 | -86.59386 | 3873 ft | 181 kts | 203° |
| 2026-05-06 04:21 | 36.28463 | -86.59867 | 3619 ft | 179 kts | 203° |
| 2026-05-06 04:21 | 36.27293 | -86.60338 | 3392 ft | 175 kts | 202° |
| 2026-05-06 04:21 | 36.26131 | -86.60805 | 3169 ft | 176 kts | 200° |
| 2026-05-06 04:22 | 36.24962 | -86.61274 | 2928 ft | 177 kts | 200° |
| 2026-05-06 04:22 | 36.23803 | -86.61740 | 2701 ft | 178 kts | 201° |
| 2026-05-06 04:22 | 36.22632 | -86.62210 | 2489 ft | 169 kts | 199° |
| 2026-05-06 04:23 | 36.20672 | -86.62996 | 2077 ft | 136 kts | 197° |
| 2026-05-06 04:23 | 36.20083 | -86.63232 | 1954 ft | 134 kts | 199° |
| 2026-05-06 04:23 | 36.18911 | -86.63703 | 1724 ft | 131 kts | 198° |
| 2026-05-06 04:23 | 36.18046 | -86.64049 | 1533 ft | 133 kts | 198° |
| 2026-05-06 04:24 | 36.17457 | -86.64285 | 1425 ft | 135 kts | 198° |
| 2026-05-06 04:24 | 36.16575 | -86.64639 | 1246 ft | 134 kts | 199° |
| 2026-05-06 04:24 | 36.15418 | -86.65103 | 1019 ft | 130 kts | 198° |
| 2026-05-06 04:24 | 36.14549 | -86.65451 | 829 ft | 134 kts | 198° |
| 2026-05-06 04:25 | 36.13685 | -86.65795 | 670 ft | 129 kts | 199° |
| 2026-05-06 04:25 | 36.13123 | -86.66020 | 595 ft | 127 kts | 199° |
| 2026-05-06 04:25 | 36.12332 | -86.66366 | 580 ft | 109 kts | 189° |
| 2026-05-06 04:25 | 36.11894 | -86.66514 | 591 ft | 29 kts | 198° |
| 2026-05-06 04:26 | 36.11703 | -86.66603 | 599 ft | 13 kts | 211° |
| 2026-05-06 04:26 | 36.11658 | -86.66679 | 600 ft | 2 kts | 264° |
| 2026-05-06 04:26 | 36.11687 | -86.66724 | 597 ft | 13 kts | 336° |
| 2026-05-06 04:26 | 36.11796 | -86.66698 | 590 ft | 20 kts | 21° |
| 2026-05-06 04:27 | 36.11957 | -86.66636 | 580 ft | 22 kts | 17° |
| 2026-05-06 04:27 | 36.12107 | -86.66575 | 576 ft | 18 kts | 19° |
| 2026-05-06 04:27 | 36.12213 | -86.66532 | 578 ft | 13 kts | 17° |
| 2026-05-06 04:27 | 36.12222 | -86.66529 | 577 ft | 0 kts | 16° |
| 2026-05-06 04:29 | 36.12252 | -86.66522 | 575 ft | 9 kts | 2° |
| 2026-05-06 04:29 | 36.12290 | -86.66600 | 570 ft | 10 kts | 287° |
| 2026-05-06 04:30 | 36.12326 | -86.66727 | 570 ft | 22 kts | 292° |
| 2026-05-06 04:30 | 36.12407 | -86.66907 | 570 ft | 26 kts | 303° |
| 2026-05-06 04:30 | 36.12438 | -86.66953 | 570 ft | 0 kts | 319° |
| 2026-05-06 04:30 | 36.12439 | -86.66954 | 570 ft | 2 kts | 319° |
| 2026-05-06 04:31 | 36.12464 | -86.66957 | 564 ft | 6 kts | 8° |
| 2026-05-06 04:31 | 36.12528 | -86.66923 | 568 ft | 13 kts | 25° |
| 2026-05-06 04:31 | 36.12619 | -86.66853 | 571 ft | 17 kts | 38° |
| 2026-05-06 04:31 | 36.12713 | -86.66770 | 574 ft | 12 kts | 12° |
| 2026-05-06 04:32 | 36.12756 | -86.66806 | 571 ft | 3 kts | 298° |
| 2026-05-06 04:32 | 36.12756 | -86.66844 | 571 ft | 1 kts | 273° |
| 2026-05-06 04:32 | 36.12762 | -86.66856 | 570 ft | 1 kts | 301° |
| 2026-05-06 04:32 | 36.12765 | -86.66860 | 569 ft | 0 kts | 305° |
| 2026-05-06 04:34 | 36.12654 | -86.66963 | 571 ft | 0 kts | 196° |
| 2026-05-06 04:35 | 36.12714 | -86.66930 | 586 ft | 0 kts | 196° |
| 2026-05-06 04:35 | 36.12701 | -86.66982 | 586 ft | 0 kts | 196° |